Time;durP1;ratioP1;P1;durP2;ratioP2;P2;SDS_P1;SDS_P2;PMS_P1;PMS_P2;Temp;Humidity;BMP_temperature;BMP_pressure;BME280_temperature;BME280_humidity;BME280_pressure;Samples;Min_cycle;Max_cycle;Signal;HPM_P1;HPM_P2
2022/06/10 00:00:50;;;;;;;;;;;17.40;61.20;;;;;;5013070;28;19913;-86
2022/06/10 00:03:16;;;;;;;;;;;17.40;61.20;;;;;;5031141;28;19924;-86
2022/06/10 00:05:43;;;;;;;;;;;17.30;61.20;;;;;;5017368;28;19917;-86
2022/06/10 00:08:13;;;;;;;;;;;17.30;61.30;;;;;;5017178;28;19924;-86
2022/06/10 00:10:39;;;;;;;;;;;17.30;61.50;;;;;;5027875;28;19951;-85
2022/06/10 00:13:04;;;;;;;;;;;17.30;61.90;;;;;;5005199;28;20048;-86
2022/06/10 00:15:30;;;;;;;;;;;17.30;62.00;;;;;;4997254;28;20289;-86
2022/06/10 00:17:55;;;;;;;;;;;17.30;61.80;;;;;;5004764;28;19947;-86
2022/06/10 00:20:23;;;;;;;;;;;17.20;61.50;;;;;;5016579;28;19974;-86
2022/06/10 00:22:49;;;;;;;;;;;17.10;61.40;;;;;;5004909;28;19924;-86
2022/06/10 00:25:15;;;;;;;;;;;17.10;61.20;;;;;;5005278;28;19914;-86
2022/06/10 00:27:40;;;;;;;;;;;17.00;61.10;;;;;;5034080;28;19963;-86
2022/06/10 00:30:07;;;;;;;;;;;17.00;61.00;;;;;;5033834;28;20322;-86
2022/06/10 00:32:33;;;;;;;;;;;16.90;60.90;;;;;;5007783;28;19932;-86
2022/06/10 00:34:58;;;;;;;;;;;16.90;61.00;;;;;;5034015;28;20339;-86
2022/06/10 00:37:24;;;;;;;;;;;16.80;61.00;;;;;;5033294;28;19917;-86
2022/06/10 00:39:49;;;;;;;;;;;16.80;61.00;;;;;;5033769;28;20016;-86
2022/06/10 00:42:15;;;;;;;;;;;16.80;60.90;;;;;;5033378;28;19918;-86
2022/06/10 00:44:48;;;;;;;;;;;16.70;60.80;;;;;;5033819;28;20444;-86
2022/06/10 00:47:14;;;;;;;;;;;16.70;60.80;;;;;;5033374;28;19925;-87
2022/06/10 00:49:40;;;;;;;;;;;16.60;60.90;;;;;;5015353;28;20277;-87
2022/06/10 00:52:12;;;;;;;;;;;16.60;60.90;;;;;;5007576;28;20357;-87
2022/06/10 00:54:39;;;;;;;;;;;16.50;61.00;;;;;;5033352;28;19948;-86
2022/06/10 00:57:25;;;;;;;;;;;16.50;61.10;;;;;;5032878;28;19944;-87
2022/06/10 01:00:02;;;;;;;;;;;16.50;61.10;;;;;;5014930;28;19924;-86
2022/06/10 01:02:31;;;;;;;;;;;16.40;61.10;;;;;;5015400;28;20391;-86
2022/06/10 01:04:57;;;;;;;;;;;16.40;61.00;;;;;;5034129;28;19983;-86
2022/06/10 01:07:26;;;;;;;;;;;16.40;61.00;;;;;;5017696;28;19917;-87
2022/06/10 01:09:52;;;;;;;;;;;16.30;60.90;;;;;;5006931;28;19976;-87
2022/06/10 01:12:36;;;;;;;;;;;16.30;60.90;;;;;;5037412;28;20380;-86
2022/06/10 01:15:07;;;;;;;;;;;16.20;60.90;;;;;;5035837;28;19963;-87
2022/06/10 01:17:48;;;;;;;;;;;16.20;61.00;;;;;;5020798;28;19912;-87
2022/06/10 01:20:33;;;;;;;;;;;16.20;61.20;;;;;;5020106;28;19917;-87
2022/06/10 01:23:17;;;;;;;;;;;16.10;61.40;;;;;;5037301;28;19917;-87
2022/06/10 01:25:48;;;;;;;;;;;16.10;61.50;;;;;;5013160;28;19921;-87
2022/06/10 01:28:23;;;;;;;;;;;16.10;61.50;;;;;;5036697;28;20000;-87
2022/06/10 01:30:59;;;;;;;;;;;16.10;61.30;;;;;;5036555;28;19921;-86
2022/06/10 01:33:33;;;;;;;;;;;16.10;61.10;;;;;;5011535;28;19976;-87
2022/06/10 01:36:12;;;;;;;;;;;16.00;60.90;;;;;;4997500;28;19917;-87
2022/06/10 01:38:43;;;;;;;;;;;16.00;61.00;;;;;;5021120;28;19991;-87
2022/06/10 01:41:16;;;;;;;;;;;16.00;61.00;;;;;;5036599;28;19960;-87
2022/06/10 01:44:01;;;;;;;;;;;15.90;61.00;;;;;;5036724;28;19925;-86
2022/06/10 01:46:30;;;;;;;;;;;15.90;60.90;;;;;;5018827;28;20346;-86
2022/06/10 01:49:02;;;;;;;;;;;15.80;60.90;;;;;;5037098;28;19917;-86
2022/06/10 01:52:07;;;;;;;;;;;15.80;60.90;;;;;;5019128;28;19952;-88
2022/06/10 01:54:32;;;;;;;;;;;15.80;60.80;;;;;;4958830;28;19926;-86
2022/06/10 01:57:00;;;;;;;;;;;15.70;60.90;;;;;;4974401;28;19973;-86
2022/06/10 01:59:25;;;;;;;;;;;15.70;60.90;;;;;;5005462;28;20045;-86
2022/06/10 02:01:54;;;;;;;;;;;15.60;60.90;;;;;;5037027;28;20061;-87
2022/06/10 02:04:22;;;;;;;;;;;15.60;60.90;;;;;;5018394;28;19921;-87
2022/06/10 02:06:53;;;;;;;;;;;15.60;61.00;;;;;;5018154;28;19925;-87
2022/06/10 02:09:21;;;;;;;;;;;15.50;60.90;;;;;;5017551;28;20002;-86
2022/06/10 02:11:49;;;;;;;;;;;15.50;60.80;;;;;;5036272;28;19920;-87
2022/06/10 02:14:24;;;;;;;;;;;15.50;60.90;;;;;;5009289;28;20122;-87
2022/06/10 02:16:50;;;;;;;;;;;15.40;61.10;;;;;;5003656;28;19913;-87
2022/06/10 02:19:24;;;;;;;;;;;15.50;61.10;;;;;;5014818;28;19940;-87
2022/06/10 02:21:53;;;;;;;;;;;15.40;61.20;;;;;;5003929;28;19917;-87
2022/06/10 02:24:23;;;;;;;;;;;15.40;61.30;;;;;;5015686;28;19975;-88
2022/06/10 02:26:50;;;;;;;;;;;15.50;61.50;;;;;;5016851;28;20371;-87
2022/06/10 02:29:21;;;;;;;;;;;15.40;61.40;;;;;;5016234;28;19917;-87
2022/06/10 02:31:48;;;;;;;;;;;15.40;61.40;;;;;;5016582;28;19913;-87
2022/06/10 02:34:14;;;;;;;;;;;15.40;61.40;;;;;;5016600;28;19925;-87
2022/06/10 02:36:46;;;;;;;;;;;15.40;61.40;;;;;;5034155;28;20032;-87
2022/06/10 02:39:17;;;;;;;;;;;15.30;61.20;;;;;;5016616;28;19940;-87
2022/06/10 02:41:53;;;;;;;;;;;15.30;61.10;;;;;;5034948;28;20000;-87
2022/06/10 02:44:41;;;;;;;;;;;15.30;61.10;;;;;;5034463;28;19925;-87
2022/06/10 02:47:06;;;;;;;;;;;15.30;61.30;;;;;;5034710;28;19966;-86
2022/06/10 02:49:33;;;;;;;;;;;15.30;61.50;;;;;;5016834;28;19940;-86
2022/06/10 02:51:59;;;;;;;;;;;15.30;61.70;;;;;;5016788;28;19917;-87
2022/06/10 02:54:32;;;;;;;;;;;15.40;61.90;;;;;;5016868;28;20542;-87
2022/06/10 02:56:58;;;;;;;;;;;15.30;61.90;;;;;;5033446;28;20270;-87
2022/06/10 03:02:27;;;;;;;;;;;15.40;61.80;;;;;;5035340;28;20405;-86
2022/06/10 03:05:01;;;;;;;;;;;15.40;61.60;;;;;;5016336;28;19991;-86
2022/06/10 03:07:30;;;;;;;;;;;15.30;61.40;;;;;;5032852;28;19913;-86
2022/06/10 03:10:01;;;;;;;;;;;15.30;61.30;;;;;;5016289;28;19924;-86
2022/06/10 03:12:46;;;;;;;;;;;15.30;61.20;;;;;;5016426;28;20039;-86
2022/06/10 03:15:20;;;;;;;;;;;15.20;61.20;;;;;;5016056;28;19923;-86
2022/06/10 03:18:12;;;;;;;;;;;15.20;61.20;;;;;;5016003;28;19919;-87
2022/06/10 03:21:04;;;;;;;;;;;15.20;61.20;;;;;;5034410;28;19921;-86
2022/06/10 03:23:35;;;;;;;;;;;15.20;61.40;;;;;;4996599;28;19967;-85
2022/06/10 03:26:16;;;;;;;;;;;15.20;61.50;;;;;;5015860;28;19909;-87
2022/06/10 03:29:01;;;;;;;;;;;15.30;61.70;;;;;;5033846;28;19921;-86
2022/06/10 03:31:27;;;;;;;;;;;15.30;62.00;;;;;;5014850;28;19971;-86
2022/06/10 03:33:55;;;;;;;;;;;15.40;62.20;;;;;;5012353;28;20309;-85
2022/06/10 03:36:23;;;;;;;;;;;15.50;62.50;;;;;;4998241;28;19936;-86
2022/06/10 03:38:49;;;;;;;;;;;15.70;62.80;;;;;;5034267;28;19921;-86
2022/06/10 03:41:22;;;;;;;;;;;15.80;63.10;;;;;;5033521;28;19913;-86
2022/06/10 03:43:49;;;;;;;;;;;16.00;63.40;;;;;;5011567;28;20008;-86
2022/06/10 03:46:15;;;;;;;;;;;16.20;63.70;;;;;;5028370;28;20439;-85
2022/06/10 03:48:42;;;;;;;;;;;16.40;63.90;;;;;;5031495;28;20378;-84
2022/06/10 03:51:08;;;;;;;;;;;16.60;64.20;;;;;;5032992;28;20415;-87
2022/06/10 03:53:34;;;;;;;;;;;16.90;64.40;;;;;;5015351;28;19925;-86
2022/06/10 03:55:59;;;;;;;;;;;17.10;64.70;;;;;;5033093;28;20004;-87
2022/06/10 03:58:25;;;;;;;;;;;17.40;65.00;;;;;;5028226;28;19924;-88
2022/06/10 04:00:51;;;;;;;;;;;17.70;65.20;;;;;;5032202;28;19917;-87
2022/06/10 04:03:16;;;;;;;;;;;17.90;65.40;;;;;;5014681;28;19921;-87
2022/06/10 04:05:42;;;;;;;;;;;18.30;65.40;;;;;;5033730;28;20230;-87
2022/06/10 04:08:07;;;;;;;;;;;18.50;65.40;;;;;;5014865;28;20277;-88
2022/06/10 04:10:32;;;;;;;;;;;18.80;65.60;;;;;;5015392;28;19959;-88
2022/06/10 04:12:58;;;;;;;;;;;19.20;65.70;;;;;;5015183;28;19921;-88
2022/06/10 04:15:26;;;;;;;;;;;19.50;65.80;;;;;;5015538;28;19967;-88
2022/06/10 04:17:51;;;;;;;;;;;19.80;65.80;;;;;;5015442;28;19996;-88
2022/06/10 04:20:19;;;;;;;;;;;20.10;66.00;;;;;;5015369;28;19955;-88
2022/06/10 04:22:46;;;;;;;;;;;20.40;65.90;;;;;;5032120;28;19921;-88
2022/06/10 04:25:12;;;;;;;;;;;20.80;66.00;;;;;;5015165;28;19921;-88
2022/06/10 04:27:37;;;;;;;;;;;21.20;66.00;;;;;;5015626;28;20284;-88
2022/06/10 04:30:04;;;;;;;;;;;21.50;66.30;;;;;;5032975;28;19917;-88
2022/06/10 04:32:32;;;;;;;;;;;21.90;66.60;;;;;;5032966;28;20444;-88
2022/06/10 04:34:57;;;;;;;;;;;22.30;66.70;;;;;;5032977;28;19985;-88
2022/06/10 04:37:23;;;;;;;;;;;22.70;66.70;;;;;;5015198;28;19917;-89
2022/06/10 04:39:49;;;;;;;;;;;23.10;66.30;;;;;;5033818;28;19917;-88
2022/06/10 04:42:14;;;;;;;;;;;23.50;66.10;;;;;;5014634;28;19939;-88
2022/06/10 04:44:40;;;;;;;;;;;23.80;65.40;;;;;;5033219;28;19924;-88
2022/06/10 04:47:11;;;;;;;;;;;24.20;65.10;;;;;;5033464;28;19913;-87
2022/06/10 04:49:39;;;;;;;;;;;24.50;64.50;;;;;;5032724;28;19996;-88
2022/06/10 04:52:05;;;;;;;;;;;24.80;63.30;;;;;;5014151;28;19919;-88
2022/06/10 04:54:30;;;;;;;;;;;25.20;63.30;;;;;;5012792;28;19925;-88
2022/06/10 04:56:56;;;;;;;;;;;25.50;63.30;;;;;;5030100;28;19920;-88
2022/06/10 04:59:22;;;;;;;;;;;25.90;62.90;;;;;;4995132;28;19948;-88
2022/06/10 05:01:48;;;;;;;;;;;26.20;62.90;;;;;;5009453;28;19964;-88
2022/06/10 05:04:13;;;;;;;;;;;26.50;63.90;;;;;;5012497;28;19958;-88
2022/06/10 05:06:39;;;;;;;;;;;26.90;63.70;;;;;;5010950;28;19914;-88
2022/06/10 05:09:04;;;;;;;;;;;27.30;65.20;;;;;;5012086;28;19976;-90
2022/06/10 05:11:30;;;;;;;;;;;27.80;65.60;;;;;;5021584;28;20008;-88
2022/06/10 05:13:57;;;;;;;;;;;28.20;65.70;;;;;;5031059;28;19962;-88
2022/06/10 05:16:23;;;;;;;;;;;28.50;65.30;;;;;;5031479;28;19970;-89
2022/06/10 05:18:48;;;;;;;;;;;28.90;66.20;;;;;;5012898;28;20000;-88
2022/06/10 05:21:14;;;;;;;;;;;29.40;66.60;;;;;;5013612;28;19917;-88
2022/06/10 05:23:41;;;;;;;;;;;29.80;66.70;;;;;;5031749;28;19917;-88
2022/06/10 05:26:07;;;;;;;;;;;30.30;67.00;;;;;;5013621;28;19914;-88
2022/06/10 05:28:32;;;;;;;;;;;30.70;67.10;;;;;;5031721;28;19924;-88
2022/06/10 05:30:58;;;;;;;;;;;31.20;65.80;;;;;;5013445;28;19925;-88
2022/06/10 05:33:23;;;;;;;;;;;31.50;64.80;;;;;;5012915;28;19925;-89
2022/06/10 05:35:49;;;;;;;;;;;31.90;64.00;;;;;;5013350;28;19936;-86
2022/06/10 05:38:14;;;;;;;;;;;32.20;61.10;;;;;;5029198;28;20322;-86
2022/06/10 05:40:40;;;;;;;;;;;32.40;60.80;;;;;;5030204;28;20108;-87
2022/06/10 05:43:06;;;;;;;;;;;32.70;60.30;;;;;;5028682;28;19917;-86
2022/06/10 05:45:32;;;;;;;;;;;33.00;60.70;;;;;;5030366;28;19917;-86
2022/06/10 05:48:00;;;;;;;;;;;33.20;56.20;;;;;;5016679;28;20004;-88
2022/06/10 05:50:27;;;;;;;;;;;33.40;57.30;;;;;;5031688;28;19913;-88
2022/06/10 05:52:53;;;;;;;;;;;33.70;55.30;;;;;;5013305;28;19965;-88
2022/06/10 05:55:19;;;;;;;;;;;33.80;54.60;;;;;;5036421;28;19925;-88
2022/06/10 05:57:45;;;;;;;;;;;34.00;53.30;;;;;;5033811;28;19917;-88
2022/06/10 06:00:23;;;;;;;;;;;34.20;52.90;;;;;;5033426;28;19925;-88
2022/06/10 06:02:48;;;;;;;;;;;34.40;49.90;;;;;;5016336;28;19917;-88
2022/06/10 06:05:14;;;;;;;;;;;34.60;49.40;;;;;;5033026;28;20044;-88
2022/06/10 06:07:40;;;;;;;;;;;34.80;51.00;;;;;;5033060;28;19932;-88
2022/06/10 06:10:06;;;;;;;;;;;35.20;52.20;;;;;;5015320;28;19917;-88
2022/06/10 06:12:32;;;;;;;;;;;35.50;52.20;;;;;;5014870;28;19936;-88
2022/06/10 06:14:57;;;;;;;;;;;35.90;51.50;;;;;;5033839;28;20307;-88
2022/06/10 06:17:23;;;;;;;;;;;36.10;46.10;;;;;;5016462;28;19920;-88
2022/06/10 06:19:49;;;;;;;;;;;36.20;43.60;;;;;;5016528;28;20016;-87
2022/06/10 06:22:15;;;;;;;;;;;36.10;35.10;;;;;;5033842;28;20031;-88
2022/06/10 06:24:40;;;;;;;;;;;36.00;37.90;;;;;;5032745;28;20626;-88
2022/06/10 06:27:06;;;;;;;;;;;36.00;38.70;;;;;;5015268;28;19917;-88
2022/06/10 06:29:39;;;;;;;;;;;36.10;36.70;;;;;;5033374;28;19979;-88
2022/06/10 06:32:04;;;;;;;;;;;36.10;35.10;;;;;;5032564;28;19960;-88
2022/06/10 06:34:30;;;;;;;;;;;36.30;35.80;;;;;;5031547;28;20404;-87
2022/06/10 06:36:55;;;;;;;;;;;36.50;35.30;;;;;;5015509;28;19917;-88
2022/06/10 06:39:23;;;;;;;;;;;36.70;33.80;;;;;;5014162;28;20350;-88
2022/06/10 06:41:49;;;;;;;;;;;36.70;30.80;;;;;;5031774;28;20357;-88
2022/06/10 06:44:15;;;;;;;;;;;36.70;29.10;;;;;;5033442;28;19924;-88
2022/06/10 06:46:41;;;;;;;;;;;36.60;31.50;;;;;;5034155;28;19924;-88
2022/06/10 06:49:08;;;;;;;;;;;36.70;32.40;;;;;;5031480;28;20389;-88
2022/06/10 06:51:35;;;;;;;;;;;36.80;32.60;;;;;;5013797;28;20061;-88
2022/06/10 06:54:01;;;;;;;;;;;36.80;33.60;;;;;;5031833;28;19951;-88
2022/06/10 06:56:26;;;;;;;;;;;37.00;32.90;;;;;;5030378;28;19917;-88
2022/06/10 06:58:52;;;;;;;;;;;37.20;32.60;;;;;;5032835;28;20035;-88
2022/06/10 07:01:17;;;;;;;;;;;37.40;31.80;;;;;;5014338;28;19927;-88
2022/06/10 07:03:43;;;;;;;;;;;37.70;31.30;;;;;;5032293;28;19975;-88
2022/06/10 07:06:10;;;;;;;;;;;37.90;31.20;;;;;;5031170;28;19944;-88
2022/06/10 07:08:35;;;;;;;;;;;38.20;30.30;;;;;;5030849;28;19917;-88
2022/06/10 07:11:02;;;;;;;;;;;38.30;29.10;;;;;;5031715;28;19935;-88
2022/06/10 07:13:27;;;;;;;;;;;38.40;29.70;;;;;;5030817;28;20440;-88
2022/06/10 07:15:54;;;;;;;;;;;38.40;27.90;;;;;;5032089;28;20012;-88
2022/06/10 07:18:21;;;;;;;;;;;38.40;28.40;;;;;;5013780;28;20012;-88
2022/06/10 07:20:46;;;;;;;;;;;38.60;27.10;;;;;;5032329;28;20087;-88
2022/06/10 07:23:12;;;;;;;;;;;38.80;28.40;;;;;;5031483;28;20001;-88
2022/06/10 07:25:37;;;;;;;;;;;39.10;28.30;;;;;;5032452;28;20004;-88
2022/06/10 07:28:03;;;;;;;;;;;39.40;27.60;;;;;;5033875;28;19963;-88
2022/06/10 07:30:30;;;;;;;;;;;39.60;27.30;;;;;;5034142;28;19940;-88
2022/06/10 07:32:57;;;;;;;;;;;39.70;26.30;;;;;;5013397;28;19928;-89
2022/06/10 07:35:22;;;;;;;;;;;39.70;25.30;;;;;;5031754;28;20365;-88
2022/06/10 07:37:49;;;;;;;;;;;39.80;26.20;;;;;;5030938;28;19917;-88
2022/06/10 07:43:05;;;;;;;;;;;40.50;27.40;;;;;;5031588;28;19924;-88
2022/06/10 07:45:31;;;;;;;;;;;40.80;26.70;;;;;;5015230;28;20368;-88
2022/06/10 07:47:57;;;;;;;;;;;41.10;25.60;;;;;;5013368;28;19913;-88
2022/06/10 07:50:23;;;;;;;;;;;41.30;25.50;;;;;;5012953;28;19989;-89
2022/06/10 07:52:49;;;;;;;;;;;41.50;25.00;;;;;;5031001;28;19921;-88
2022/06/10 07:55:14;;;;;;;;;;;41.70;23.50;;;;;;5031473;28;19932;-88
2022/06/10 07:57:39;;;;;;;;;;;41.80;22.30;;;;;;5030812;28;19913;-88
2022/06/10 08:00:05;;;;;;;;;;;41.70;21.60;;;;;;5030668;28;20327;-88
2022/06/10 08:02:31;;;;;;;;;;;41.60;21.70;;;;;;5031533;28;20003;-88
2022/06/10 08:04:57;;;;;;;;;;;41.60;21.60;;;;;;5013633;28;19959;-88
2022/06/10 08:07:22;;;;;;;;;;;41.80;21.70;;;;;;5013194;28;19979;-88
2022/06/10 08:09:48;;;;;;;;;;;42.20;21.60;;;;;;5013426;28;19988;-88
2022/06/10 08:12:13;;;;;;;;;;;42.50;20.10;;;;;;5031287;28;20272;-89
2022/06/10 08:14:39;;;;;;;;;;;42.60;19.10;;;;;;5013874;28;20034;-88
2022/06/10 08:17:07;;;;;;;;;;;42.80;19.10;;;;;;5013418;28;20011;-88
2022/06/10 08:19:32;;;;;;;;;;;42.90;18.70;;;;;;5012776;28;19917;-88
2022/06/10 08:24:42;;;;;;;;;;;43.20;18.30;;;;;;5031806;28;19971;-88
2022/06/10 08:27:07;;;;;;;;;;;43.30;18.20;;;;;;5031541;28;19921;-88
2022/06/10 08:29:33;;;;;;;;;;;43.30;18.00;;;;;;5031215;28;19924;-88
2022/06/10 08:31:58;;;;;;;;;;;43.30;17.70;;;;;;5031355;28;19913;-88
2022/06/10 08:34:24;;;;;;;;;;;43.20;17.40;;;;;;5012917;28;19929;-88
2022/06/10 08:36:49;;;;;;;;;;;43.00;17.60;;;;;;5012400;28;19913;-88
2022/06/10 08:39:15;;;;;;;;;;;42.70;17.50;;;;;;5030691;28;20016;-88
2022/06/10 08:41:40;;;;;;;;;;;42.40;17.80;;;;;;5028994;28;20277;-88
2022/06/10 08:44:16;;;;;;;;;;;42.10;18.00;;;;;;5031040;28;19921;-88
2022/06/10 08:46:53;;;;;;;;;;;41.80;18.20;;;;;;5030961;28;19920;-88
2022/06/10 08:49:51;;;;;;;;;;;41.50;18.20;;;;;;5011132;28;19936;-88
2022/06/10 08:52:25;;;;;;;;;;;41.30;18.70;;;;;;4981830;28;19956;-88
2022/06/10 08:54:57;;;;;;;;;;;40.90;19.00;;;;;;5009510;28;19925;-88
2022/06/10 08:57:32;;;;;;;;;;;40.60;19.20;;;;;;5009036;28;19941;-88
2022/06/10 08:59:59;;;;;;;;;;;40.30;19.40;;;;;;5009058;28;20350;-88
2022/06/10 09:02:31;;;;;;;;;;;40.10;19.30;;;;;;5010370;28;20373;-88
2022/06/10 09:04:56;;;;;;;;;;;39.80;19.70;;;;;;5010359;28;19992;-88
2022/06/10 09:07:27;;;;;;;;;;;39.60;19.90;;;;;;5010257;28;19960;-88
2022/06/10 09:09:53;;;;;;;;;;;39.30;20.10;;;;;;5011090;28;19959;-88
2022/06/10 09:12:23;;;;;;;;;;;39.20;20.30;;;;;;5011481;28;20313;-88
2022/06/10 09:14:52;;;;;;;;;;;38.90;20.40;;;;;;5010527;28;20338;-88
2022/06/10 09:17:31;;;;;;;;;;;38.70;20.60;;;;;;5009498;28;19917;-87
2022/06/10 09:20:12;;;;;;;;;;;38.60;20.70;;;;;;4993556;28;19917;-88
2022/06/10 09:22:59;;;;;;;;;;;38.50;20.70;;;;;;5030967;28;20337;-88
2022/06/10 09:25:37;;;;;;;;;;;38.30;21.00;;;;;;5015879;28;20036;-89
2022/06/10 09:28:03;;;;;;;;;;;38.20;20.80;;;;;;5015620;28;19935;-88
2022/06/10 09:30:52;;;;;;;;;;;38.00;21.20;;;;;;5017754;28;20439;-86
2022/06/10 09:33:33;;;;;;;;;;;37.80;21.40;;;;;;5009074;28;19952;-87
2022/06/10 09:36:21;;;;;;;;;;;37.80;21.70;;;;;;5017676;28;19925;-87
2022/06/10 09:39:05;;;;;;;;;;;37.70;21.90;;;;;;5016937;28;19921;-87
2022/06/10 09:41:52;;;;;;;;;;;37.60;22.00;;;;;;5018054;28;19960;-88
2022/06/10 09:44:27;;;;;;;;;;;37.50;22.20;;;;;;5038708;28;19959;-88
2022/06/10 09:47:07;;;;;;;;;;;37.30;21.80;;;;;;5016561;28;19917;-88
2022/06/10 09:49:35;;;;;;;;;;;37.20;21.80;;;;;;5034360;28;20419;-88
2022/06/10 09:52:01;;;;;;;;;;;36.90;22.10;;;;;;5017124;28;19939;-88
2022/06/10 09:54:47;;;;;;;;;;;36.80;21.70;;;;;;5017064;28;19925;-88
2022/06/10 09:57:21;;;;;;;;;;;36.70;21.80;;;;;;5034513;28;19920;-87
2022/06/10 09:59:49;;;;;;;;;;;36.80;22.10;;;;;;5036136;28;19939;-87
2022/06/10 10:02:38;;;;;;;;;;;36.80;22.10;;;;;;5035562;28;19943;-87
2022/06/10 10:05:22;;;;;;;;;;;37.00;22.20;;;;;;5019755;28;19921;-87
2022/06/10 10:07:52;;;;;;;;;;;37.10;21.80;;;;;;5018116;28;19991;-88
2022/06/10 10:10:36;;;;;;;;;;;37.10;21.90;;;;;;5017460;28;19924;-88
2022/06/10 10:13:02;;;;;;;;;;;37.20;22.10;;;;;;5016913;28;19917;-88
2022/06/10 10:15:27;;;;;;;;;;;37.30;22.00;;;;;;5034790;28;20020;-89
2022/06/10 10:18:07;;;;;;;;;;;37.40;21.70;;;;;;5033868;28;19925;-87
2022/06/10 10:20:51;;;;;;;;;;;37.40;21.80;;;;;;5017273;28;20008;-87
2022/06/10 10:23:19;;;;;;;;;;;37.40;21.60;;;;;;5033589;28;19917;-87
2022/06/10 10:25:46;;;;;;;;;;;37.40;22.00;;;;;;5017459;28;20365;-87
2022/06/10 10:28:21;;;;;;;;;;;37.50;22.20;;;;;;5018123;28;19920;-88
2022/06/10 10:30:51;;;;;;;;;;;37.50;22.40;;;;;;5035356;28;19917;-88
2022/06/10 10:33:17;;;;;;;;;;;37.50;22.20;;;;;;5016407;28;19921;-88
2022/06/10 10:35:45;;;;;;;;;;;37.40;21.80;;;;;;5035770;28;20403;-88
2022/06/10 10:38:13;;;;;;;;;;;37.20;22.10;;;;;;5017349;28;19913;-88
2022/06/10 10:40:43;;;;;;;;;;;37.10;22.40;;;;;;5037447;28;19921;-88
2022/06/10 10:43:11;;;;;;;;;;;37.00;22.40;;;;;;5015706;28;19921;-87
2022/06/10 10:45:38;;;;;;;;;;;36.90;22.60;;;;;;5015648;28;19917;-88
2022/06/10 10:48:25;;;;;;;;;;;36.80;22.60;;;;;;5017000;28;20641;-88
2022/06/10 10:50:55;;;;;;;;;;;36.90;22.70;;;;;;5032595;28;19925;-88
2022/06/10 10:53:30;;;;;;;;;;;37.10;22.70;;;;;;5032774;28;20373;-88
2022/06/10 10:55:57;;;;;;;;;;;37.20;22.90;;;;;;5014470;28;19975;-87
2022/06/10 10:58:31;;;;;;;;;;;37.40;22.70;;;;;;5032810;28;19917;-87
2022/06/10 11:01:08;;;;;;;;;;;37.50;22.60;;;;;;5013957;28;19974;-88
2022/06/10 11:03:45;;;;;;;;;;;37.60;22.50;;;;;;5033881;28;19960;-87
2022/06/10 11:06:22;;;;;;;;;;;37.70;22.10;;;;;;5035134;28;19928;-89
2022/06/10 11:08:54;;;;;;;;;;;37.80;21.80;;;;;;5021671;28;19913;-87
2022/06/10 11:11:24;;;;;;;;;;;37.70;21.70;;;;;;5039356;28;20273;-88
2022/06/10 11:13:54;;;;;;;;;;;37.80;22.00;;;;;;5015390;28;19913;-88
2022/06/10 11:16:32;;;;;;;;;;;38.00;21.90;;;;;;5032276;28;19921;-87
2022/06/10 11:19:00;;;;;;;;;;;38.40;21.60;;;;;;5014515;28;19913;-87
2022/06/10 11:21:26;;;;;;;;;;;38.60;21.40;;;;;;5032188;28;19917;-87
2022/06/10 11:23:53;;;;;;;;;;;38.80;21.30;;;;;;5015454;28;19917;-88
2022/06/10 11:26:21;;;;;;;;;;;39.20;21.00;;;;;;5033103;28;20028;-88
2022/06/10 11:28:49;;;;;;;;;;;39.70;20.40;;;;;;5033280;28;20019;-88
2022/06/10 11:31:23;;;;;;;;;;;39.90;20.30;;;;;;5015519;28;19917;-87
2022/06/10 11:33:51;;;;;;;;;;;39.90;20.50;;;;;;5015744;28;20472;-87
2022/06/10 11:36:26;;;;;;;;;;;40.00;20.50;;;;;;5031870;28;19921;-87
2022/06/10 11:38:53;;;;;;;;;;;40.00;20.00;;;;;;5014348;28;19972;-88
2022/06/10 11:41:21;;;;;;;;;;;40.10;20.40;;;;;;5033056;28;20315;-88
2022/06/10 11:43:49;;;;;;;;;;;40.30;20.60;;;;;;5015292;28;19920;-87
2022/06/10 11:46:21;;;;;;;;;;;40.50;20.20;;;;;;5015124;28;19917;-88
2022/06/10 11:48:54;;;;;;;;;;;40.60;20.00;;;;;;5032611;28;19932;-87
2022/06/10 11:51:23;;;;;;;;;;;40.60;20.00;;;;;;5031711;28;20011;-88
2022/06/10 11:53:51;;;;;;;;;;;40.70;19.90;;;;;;5014710;28;20024;-88
2022/06/10 12:02:01;;;;;;;;;;;42.70;18.30;;;;;;4993499;28;20308;-88
2022/06/10 12:04:30;;;;;;;;;;;42.50;18.40;;;;;;5031992;28;19913;-89
2022/06/10 12:06:59;;;;;;;;;;;42.70;18.70;;;;;;5014303;28;20020;-89
2022/06/10 12:09:27;;;;;;;;;;;42.80;18.80;;;;;;5032968;28;19932;-88
2022/06/10 12:11:53;;;;;;;;;;;42.70;18.90;;;;;;5032459;28;19928;-89
2022/06/10 12:14:27;;;;;;;;;;;42.50;18.90;;;;;;5013399;28;19925;-89
2022/06/10 12:16:59;;;;;;;;;;;42.00;18.50;;;;;;5014408;28;20373;-88
2022/06/10 12:19:28;;;;;;;;;;;41.70;18.40;;;;;;5014307;28;20374;-88
2022/06/10 12:21:56;;;;;;;;;;;41.20;18.80;;;;;;5032227;28;20350;-88
2022/06/10 12:24:21;;;;;;;;;;;40.80;19.40;;;;;;5030202;28;19932;-89
2022/06/10 12:26:59;;;;;;;;;;;40.70;19.90;;;;;;5031502;28;19917;-89
2022/06/10 12:29:40;;;;;;;;;;;40.70;20.00;;;;;;5014049;28;19921;-89
2022/06/10 12:32:20;;;;;;;;;;;40.60;19.70;;;;;;5013529;28;19959;-88
2022/06/10 12:34:58;;;;;;;;;;;40.40;19.60;;;;;;5031079;28;19976;-89
2022/06/10 12:37:27;;;;;;;;;;;40.10;20.10;;;;;;5013519;28;19924;-89
2022/06/10 12:39:55;;;;;;;;;;;40.20;20.20;;;;;;5013078;28;19960;-88
2022/06/10 12:42:27;;;;;;;;;;;40.90;19.60;;;;;;4994018;28;20281;-88
2022/06/10 12:44:55;;;;;;;;;;;41.10;19.20;;;;;;5010551;28;19918;-89
2022/06/10 12:47:26;;;;;;;;;;;41.50;19.10;;;;;;5011867;28;19925;-89
2022/06/10 12:49:59;;;;;;;;;;;41.90;18.90;;;;;;4993988;28;20008;-88
2022/06/10 12:52:48;;;;;;;;;;;42.00;18.20;;;;;;5011562;28;19917;-88
2022/06/10 12:55:13;;;;;;;;;;;42.20;18.50;;;;;;4991369;28;19921;-89
2022/06/10 12:57:39;;;;;;;;;;;42.00;18.20;;;;;;4994075;28;20447;-88
2022/06/10 13:00:17;;;;;;;;;;;41.30;18.60;;;;;;5012163;28;19960;-89
2022/06/10 13:02:53;;;;;;;;;;;40.80;18.80;;;;;;5014309;28;19921;-88
2022/06/10 13:05:20;;;;;;;;;;;39.80;19.70;;;;;;5016009;28;19921;-89
2022/06/10 13:07:47;;;;;;;;;;;38.90;20.30;;;;;;5015367;28;20392;-88
2022/06/10 13:10:28;;;;;;;;;;;38.40;21.00;;;;;;5014684;28;20317;-87
2022/06/10 13:12:59;;;;;;;;;;;38.10;21.60;;;;;;4997032;28;19917;-87
2022/06/10 13:15:34;;;;;;;;;;;37.70;22.10;;;;;;4997437;28;19928;-87
2022/06/10 13:18:20;;;;;;;;;;;37.50;22.50;;;;;;5014673;28;19940;-87
2022/06/10 13:20:49;;;;;;;;;;;37.30;22.90;;;;;;4976035;28;19937;-87
2022/06/10 13:23:16;;;;;;;;;;;37.10;23.00;;;;;;4994196;28;19918;-87
2022/06/10 13:25:43;;;;;;;;;;;36.70;23.10;;;;;;5014406;28;20008;-87
2022/06/10 13:28:13;;;;;;;;;;;36.40;23.30;;;;;;4997035;28;19944;-87
2022/06/10 13:30:38;;;;;;;;;;;36.20;23.60;;;;;;5012713;28;19925;-87
2022/06/10 13:33:05;;;;;;;;;;;36.20;23.70;;;;;;5014630;28;19925;-87
2022/06/10 13:35:33;;;;;;;;;;;36.20;23.90;;;;;;4996962;28;20226;-87
2022/06/10 13:38:01;;;;;;;;;;;36.30;24.00;;;;;;5008539;28;20015;-87
2022/06/10 13:40:28;;;;;;;;;;;36.40;24.10;;;;;;5034716;28;19917;-89
2022/06/10 13:42:58;;;;;;;;;;;36.70;24.00;;;;;;5034628;28;19967;-88
2022/06/10 13:45:31;;;;;;;;;;;36.80;23.80;;;;;;5016543;28;19921;-88
2022/06/10 13:47:56;;;;;;;;;;;37.10;23.90;;;;;;5015317;28;19914;-88
2022/06/10 13:53:05;;;;;;;;;;;37.50;23.80;;;;;;5026342;28;20410;-88
2022/06/10 13:55:39;;;;;;;;;;;37.70;23.80;;;;;;5008040;28;19921;-88
2022/06/10 13:58:11;;;;;;;;;;;37.70;23.60;;;;;;5027308;28;20435;-89
2022/06/10 14:00:41;;;;;;;;;;;37.50;23.60;;;;;;5028534;28;19928;-88
2022/06/10 14:03:19;;;;;;;;;;;37.20;23.70;;;;;;5010852;28;19913;-88
2022/06/10 14:05:45;;;;;;;;;;;36.90;23.80;;;;;;5006763;28;19928;-87
2022/06/10 14:08:14;;;;;;;;;;;36.60;24.20;;;;;;5027047;28;19993;-88
2022/06/10 14:10:47;;;;;;;;;;;36.50;24.40;;;;;;5027023;28;20242;-88
2022/06/10 14:13:16;;;;;;;;;;;36.50;24.40;;;;;;5020283;28;20366;-87
2022/06/10 14:15:47;;;;;;;;;;;36.50;24.40;;;;;;5028889;28;20611;-88
2022/06/10 14:18:17;;;;;;;;;;;36.90;24.20;;;;;;5028922;28;20043;-88
2022/06/10 14:20:42;;;;;;;;;;;37.50;23.90;;;;;;5025721;28;19921;-88
2022/06/10 14:23:28;;;;;;;;;;;38.40;23.20;;;;;;5014512;28;20498;-89
2022/06/10 14:26:17;;;;;;;;;;;39.20;22.60;;;;;;5023777;28;20436;-88
2022/06/10 14:28:43;;;;;;;;;;;39.60;22.20;;;;;;5013554;28;19913;-88
2022/06/10 14:31:24;;;;;;;;;;;39.10;22.70;;;;;;5022594;28;19925;-88
2022/06/10 14:33:50;;;;;;;;;;;38.60;23.20;;;;;;5011991;28;20016;-88
2022/06/10 14:36:18;;;;;;;;;;;38.20;23.60;;;;;;5028585;28;19948;-88
2022/06/10 14:39:01;;;;;;;;;;;38.00;23.60;;;;;;5026066;28;19923;-88
2022/06/10 14:41:27;;;;;;;;;;;38.00;23.70;;;;;;5028317;28;20288;-86
2022/06/10 14:44:01;;;;;;;;;;;37.90;23.70;;;;;;5009757;28;19913;-85
2022/06/10 14:46:27;;;;;;;;;;;37.80;23.90;;;;;;5008842;28;20519;-88
2022/06/10 14:48:54;;;;;;;;;;;37.60;24.10;;;;;;5032268;28;19924;-87